sensor_id;sensor_type;location;lat;lon;timestamp;pressure;altitude;pressure_sealevel;temperature;humidity
12759;BME280;20944;47.048;15.390;2023-03-26T00:02:26;97134.22;;;5.41;100.00
12759;BME280;20944;47.048;15.390;2023-03-26T00:04:55;97092.88;;;5.26;100.00
12759;BME280;20944;47.048;15.390;2023-03-26T00:07:24;97156.13;;;5.79;100.00
12759;BME280;20944;47.048;15.390;2023-03-26T00:09:53;97157.19;;;5.67;100.00
12759;BME280;20944;47.048;15.390;2023-03-26T00:12:23;97053.34;;;5.09;100.00
12759;BME280;20944;47.048;15.390;2023-03-26T00:14:52;97163.09;;;5.77;100.00
12759;BME280;20944;47.048;15.390;2023-03-26T00:17:20;97163.97;;;5.76;100.00
12759;BME280;20944;47.048;15.390;2023-03-26T00:19:50;97105.31;;;5.61;100.00
12759;BME280;20944;47.048;15.390;2023-03-26T00:22:19;97153.38;;;5.88;100.00
12759;BME280;20944;47.048;15.390;2023-03-26T00:24:49;97149.09;;;5.84;100.00
12759;BME280;20944;47.048;15.390;2023-03-26T00:27:17;97039.09;;;5.34;100.00
12759;BME280;20944;47.048;15.390;2023-03-26T00:29:46;97145.56;;;5.88;100.00
12759;BME280;20944;47.048;15.390;2023-03-26T00:32:14;97140.38;;;5.91;100.00
12759;BME280;20944;47.048;15.390;2023-03-26T00:34:42;97149.06;;;5.87;100.00
12759;BME280;20944;47.048;15.390;2023-03-26T00:37:13;97143.03;;;5.84;100.00
12759;BME280;20944;47.048;15.390;2023-03-26T00:39:41;97145.84;;;5.73;100.00
12759;BME280;20944;47.048;15.390;2023-03-26T00:42:10;97146.13;;;5.55;100.00
12759;BME280;20944;47.048;15.390;2023-03-26T00:44:40;97136.28;;;5.20;100.00
12759;BME280;20944;47.048;15.390;2023-03-26T00:47:08;97125.22;;;5.05;100.00
12759;BME280;20944;47.048;15.390;2023-03-26T00:49:37;97156.16;;;5.22;100.00
12759;BME280;20944;47.048;15.390;2023-03-26T00:52:07;97097.75;;;4.92;100.00
12759;BME280;20944;47.048;15.390;2023-03-26T00:54:37;97152.69;;;5.23;100.00
12759;BME280;20944;47.048;15.390;2023-03-26T00:57:05;97140.50;;;5.27;100.00
12759;BME280;20944;47.048;15.390;2023-03-26T00:59:36;97146.59;;;5.24;100.00
12759;BME280;20944;47.048;15.390;2023-03-26T01:02:04;97141.44;;;5.23;100.00
12759;BME280;20944;47.048;15.390;2023-03-26T01:04:36;97139.72;;;5.20;100.00
12759;BME280;20944;47.048;15.390;2023-03-26T01:07:09;97131.72;;;5.34;100.00
12759;BME280;20944;47.048;15.390;2023-03-26T01:09:43;97135.22;;;5.33;100.00
12759;BME280;20944;47.048;15.390;2023-03-26T01:12:19;97126.75;;;5.22;100.00
12759;BME280;20944;47.048;15.390;2023-03-26T01:14:49;97068.63;;;4.70;100.00
12759;BME280;20944;47.048;15.390;2023-03-26T01:17:18;97125.84;;;5.21;100.00
12759;BME280;20944;47.048;15.390;2023-03-26T01:19:52;97126.66;;;5.26;100.00
12759;BME280;20944;47.048;15.390;2023-03-26T01:22:23;97120.66;;;5.21;100.00
12759;BME280;20944;47.048;15.390;2023-03-26T01:24:53;97103.47;;;5.14;100.00
12759;BME280;20944;47.048;15.390;2023-03-26T01:27:32;97096.63;;;5.10;100.00
12759;BME280;20944;47.048;15.390;2023-03-26T01:30:12;97079.53;;;4.94;100.00
12759;BME280;20944;47.048;15.390;2023-03-26T01:32:50;97094.84;;;5.12;100.00
12759;BME280;20944;47.048;15.390;2023-03-26T01:35:28;97093.88;;;5.19;100.00
12759;BME280;20944;47.048;15.390;2023-03-26T01:38:08;97092.91;;;5.25;100.00
12759;BME280;20944;47.048;15.390;2023-03-26T01:40:44;97101.66;;;5.19;100.00
12759;BME280;20944;47.048;15.390;2023-03-26T01:43:24;97088.66;;;5.19;100.00
12759;BME280;20944;47.048;15.390;2023-03-26T01:45:56;97080.03;;;5.19;100.00
12759;BME280;20944;47.048;15.390;2023-03-26T01:48:31;97027.75;;;4.86;100.00
12759;BME280;20944;47.048;15.390;2023-03-26T01:51:00;97076.50;;;5.21;100.00
12759;BME280;20944;47.048;15.390;2023-03-26T01:53:29;97073.03;;;5.24;100.00
12759;BME280;20944;47.048;15.390;2023-03-26T01:56:07;97055.03;;;5.11;100.00
12759;BME280;20944;47.048;15.390;2023-03-26T01:58:48;97048.13;;;5.09;100.00
12759;BME280;20944;47.048;15.390;2023-03-26T02:01:24;97068.91;;;5.09;100.00
12759;BME280;20944;47.048;15.390;2023-03-26T02:04:01;97077.78;;;4.97;100.00
12759;BME280;20944;47.048;15.390;2023-03-26T02:06:35;97038.28;;;4.75;100.00
12759;BME280;20944;47.048;15.390;2023-03-26T02:09:06;97086.50;;;4.90;100.00
12759;BME280;20944;47.048;15.390;2023-03-26T02:11:39;97091.28;;;4.57;100.00
12759;BME280;20944;47.048;15.390;2023-03-26T02:14:08;97100.22;;;4.33;100.00
12759;BME280;20944;47.048;15.390;2023-03-26T02:16:36;97105.38;;;4.37;100.00
12759;BME280;20944;47.048;15.390;2023-03-26T02:19:05;97089.84;;;4.33;100.00
12759;BME280;20944;47.048;15.390;2023-03-26T02:21:41;97064.97;;;4.19;100.00
12759;BME280;20944;47.048;15.390;2023-03-26T02:24:09;97088.06;;;4.37;100.00
12759;BME280;20944;47.048;15.390;2023-03-26T02:26:39;97082.88;;;4.39;100.00
12759;BME280;20944;47.048;15.390;2023-03-26T02:29:07;97075.00;;;4.45;100.00
12759;BME280;20944;47.048;15.390;2023-03-26T02:31:35;97045.66;;;4.40;100.00
12759;BME280;20944;47.048;15.390;2023-03-26T02:34:04;97076.63;;;4.52;100.00
12759;BME280;20944;47.048;15.390;2023-03-26T02:36:32;97080.91;;;4.56;100.00
12759;BME280;20944;47.048;15.390;2023-03-26T02:39:02;97085.19;;;4.58;100.00
12759;BME280;20944;47.048;15.390;2023-03-26T02:41:30;97086.88;;;4.63;100.00
12759;BME280;20944;47.048;15.390;2023-03-26T02:43:59;97090.22;;;4.71;100.00
12759;BME280;20944;47.048;15.390;2023-03-26T02:46:27;97092.00;;;4.69;100.00
12759;BME280;20944;47.048;15.390;2023-03-26T02:48:56;97086.84;;;4.67;100.00
12759;BME280;20944;47.048;15.390;2023-03-26T02:51:24;97071.44;;;4.55;100.00
12759;BME280;20944;47.048;15.390;2023-03-26T02:53:53;97085.06;;;4.69;100.00
12759;BME280;20944;47.048;15.390;2023-03-26T02:56:21;97005.34;;;4.17;100.00
12759;BME280;20944;47.048;15.390;2023-03-26T02:58:49;97087.72;;;4.65;100.00
12759;BME280;20944;47.048;15.390;2023-03-26T03:01:18;97093.81;;;4.62;100.00
12759;BME280;20944;47.048;15.390;2023-03-26T03:03:48;97098.00;;;4.72;100.00
12759;BME280;20944;47.048;15.390;2023-03-26T03:06:16;97097.13;;;4.73;100.00
12759;BME280;20944;47.048;15.390;2023-03-26T03:08:45;97069.75;;;4.51;100.00
12759;BME280;20944;47.048;15.390;2023-03-26T03:11:15;96857.38;;;3.00;100.00
12759;BME280;20944;47.048;15.390;2023-03-26T03:13:44;97101.72;;;4.51;100.00
12759;BME280;20944;47.048;15.390;2023-03-26T03:16:12;97098.22;;;4.55;100.00
12759;BME280;20944;47.048;15.390;2023-03-26T03:18:42;97099.97;;;4.55;100.00
12759;BME280;20944;47.048;15.390;2023-03-26T03:21:10;97100.81;;;4.55;100.00
12759;BME280;20944;47.048;15.390;2023-03-26T03:23:38;97101.88;;;4.41;100.00
12759;BME280;20944;47.048;15.390;2023-03-26T03:26:11;97097.69;;;4.29;100.00
12759;BME280;20944;47.048;15.390;2023-03-26T03:28:41;97090.84;;;4.20;100.00
12759;BME280;20944;47.048;15.390;2023-03-26T03:31:10;97095.13;;;4.26;100.00
12759;BME280;20944;47.048;15.390;2023-03-26T03:33:39;97090.78;;;4.26;100.00
12759;BME280;20944;47.048;15.390;2023-03-26T03:36:10;97098.66;;;4.22;100.00
12759;BME280;20944;47.048;15.390;2023-03-26T03:38:47;97048.03;;;3.90;100.00
12759;BME280;20944;47.048;15.390;2023-03-26T03:41:16;97086.66;;;4.12;100.00
12759;BME280;20944;47.048;15.390;2023-03-26T03:43:44;97093.53;;;4.13;100.00
12759;BME280;20944;47.048;15.390;2023-03-26T03:46:12;97093.53;;;4.16;100.00
12759;BME280;20944;47.048;15.390;2023-03-26T03:48:41;97099.44;;;4.25;100.00
12759;BME280;20944;47.048;15.390;2023-03-26T03:51:15;97099.34;;;4.35;100.00
12759;BME280;20944;47.048;15.390;2023-03-26T03:53:44;97090.78;;;4.26;100.00
12759;BME280;20944;47.048;15.390;2023-03-26T03:56:13;97091.75;;;4.19;100.00
12759;BME280;20944;47.048;15.390;2023-03-26T03:58:44;97102.19;;;4.12;100.00
12759;BME280;20944;47.048;15.390;2023-03-26T04:01:13;97104.13;;;3.93;100.00
12759;BME280;20944;47.048;15.390;2023-03-26T04:03:42;97113.78;;;3.78;100.00
12759;BME280;20944;47.048;15.390;2023-03-26T04:06:12;97117.19;;;3.81;100.00
12759;BME280;20944;47.048;15.390;2023-03-26T04:08:46;97066.44;;;3.61;100.00
12759;BME280;20944;47.048;15.390;2023-03-26T04:11:14;97104.94;;;3.98;100.00
12759;BME280;20944;47.048;15.390;2023-03-26T04:13:42;97111.88;;;3.97;100.00
12759;BME280;20944;47.048;15.390;2023-03-26T04:16:10;97107.63;;;3.90;100.00
12759;BME280;20944;47.048;15.390;2023-03-26T04:18:39;97110.94;;;4.01;100.00
12759;BME280;20944;47.048;15.390;2023-03-26T04:21:07;97114.44;;;3.99;100.00
12759;BME280;20944;47.048;15.390;2023-03-26T04:23:38;97123.09;;;3.96;100.00
12759;BME280;20944;47.048;15.390;2023-03-26T04:26:12;97113.66;;;3.91;100.00
12759;BME280;20944;47.048;15.390;2023-03-26T04:28:44;97119.75;;;3.87;100.00
12759;BME280;20944;47.048;15.390;2023-03-26T04:31:16;97113.72;;;3.83;100.00
12759;BME280;20944;47.048;15.390;2023-03-26T04:33:51;97111.09;;;3.86;100.00
12759;BME280;20944;47.048;15.390;2023-03-26T04:36:24;97105.91;;;3.88;100.00
12759;BME280;20944;47.048;15.390;2023-03-26T04:38:55;97105.75;;;4.03;100.00
12759;BME280;20944;47.048;15.390;2023-03-26T04:41:29;97098.72;;;4.16;100.00
12759;BME280;20944;47.048;15.390;2023-03-26T04:43:58;97097.03;;;4.10;100.00
12759;BME280;20944;47.048;15.390;2023-03-26T04:46:28;97096.25;;;4.03;100.00
12759;BME280;20944;47.048;15.390;2023-03-26T04:48:59;97090.25;;;3.95;100.00
12759;BME280;20944;47.048;15.390;2023-03-26T04:51:33;97002.81;;;3.33;100.00
12759;BME280;20944;47.048;15.390;2023-03-26T04:54:04;97078.34;;;3.81;100.00
12759;BME280;20944;47.048;15.390;2023-03-26T04:56:39;97097.28;;;3.86;100.00
12759;BME280;20944;47.048;15.390;2023-03-26T04:59:13;97099.81;;;3.92;100.00
12759;BME280;20944;47.048;15.390;2023-03-26T05:01:43;97096.19;;;4.08;100.00
12759;BME280;20944;47.048;15.390;2023-03-26T05:04:12;97073.00;;;3.94;100.00
12759;BME280;20944;47.048;15.390;2023-03-26T05:06:41;97084.25;;;3.93;100.00
12759;BME280;20944;47.048;15.390;2023-03-26T05:09:09;96641.91;;;1.27;100.00
12759;BME280;20944;47.048;15.390;2023-03-26T05:11:39;97080.06;;;3.80;100.00
12759;BME280;20944;47.048;15.390;2023-03-26T05:14:07;97062.94;;;3.67;100.00
12759;BME280;20944;47.048;15.390;2023-03-26T05:16:36;97073.19;;;3.77;100.00
12759;BME280;20944;47.048;15.390;2023-03-26T05:19:05;97066.25;;;3.81;100.00
12759;BME280;20944;47.048;15.390;2023-03-26T05:21:34;97052.50;;;3.73;100.00
12759;BME280;20944;47.048;15.390;2023-03-26T05:24:02;97077.34;;;3.94;100.00
12759;BME280;20944;47.048;15.390;2023-03-26T05:26:32;97078.06;;;4.06;100.00
12759;BME280;20944;47.048;15.390;2023-03-26T05:29:02;97073.66;;;4.16;100.00
12759;BME280;20944;47.048;15.390;2023-03-26T05:31:30;97076.31;;;4.10;100.00
12759;BME280;20944;47.048;15.390;2023-03-26T05:33:59;97076.31;;;4.10;100.00
12759;BME280;20944;47.048;15.390;2023-03-26T05:36:27;97053.97;;;3.95;100.00
12759;BME280;20944;47.048;15.390;2023-03-26T05:38:55;97070.25;;;4.11;100.00
12759;BME280;20944;47.048;15.390;2023-03-26T05:41:24;97058.06;;;4.18;100.00
12759;BME280;20944;47.048;15.390;2023-03-26T05:43:52;97061.41;;;4.27;100.00
12759;BME280;20944;47.048;15.390;2023-03-26T05:46:22;97059.50;;;4.42;100.00
12759;BME280;20944;47.048;15.390;2023-03-26T05:48:50;97056.03;;;4.43;100.00
12759;BME280;20944;47.048;15.390;2023-03-26T05:51:19;97053.50;;;4.37;100.00
12759;BME280;20944;47.048;15.390;2023-03-26T05:53:49;97064.78;;;4.34;100.00
12759;BME280;20944;47.048;15.390;2023-03-26T05:56:17;97073.44;;;4.35;100.00
12759;BME280;20944;47.048;15.390;2023-03-26T05:58:45;97023.75;;;3.96;100.00
12759;BME280;20944;47.048;15.390;2023-03-26T06:01:14;97068.31;;;4.27;100.00
12759;BME280;20944;47.048;15.390;2023-03-26T06:03:45;97057.88;;;4.31;100.00
12759;BME280;20944;47.048;15.390;2023-03-26T06:06:15;97068.72;;;4.63;100.00
12759;BME280;20944;47.048;15.390;2023-03-26T06:08:45;97076.44;;;4.67;100.00
12759;BME280;20944;47.048;15.390;2023-03-26T06:11:28;97065.50;;;4.47;100.00
12759;BME280;20944;47.048;15.390;2023-03-26T06:13:56;97066.28;;;4.50;100.00
12759;BME280;20944;47.048;15.390;2023-03-26T06:16:25;97065.31;;;4.60;100.00
12759;BME280;20944;47.048;15.390;2023-03-26T06:18:56;96978.63;;;4.12;100.00
12759;BME280;20944;47.048;15.390;2023-03-26T06:21:24;97062.50;;;4.74;100.00
12759;BME280;20944;47.048;15.390;2023-03-26T06:23:53;97070.88;;;4.95;100.00
12759;BME280;20944;47.048;15.390;2023-03-26T06:26:21;97073.44;;;4.98;100.00
12759;BME280;20944;47.048;15.390;2023-03-26T06:28:49;97075.16;;;4.97;100.00
12759;BME280;20944;47.048;15.390;2023-03-26T06:31:17;97058.00;;;4.87;100.00
12759;BME280;20944;47.048;15.390;2023-03-26T06:33:45;97081.06;;;5.07;100.00
12759;BME280;20944;47.048;15.390;2023-03-26T06:36:15;97060.06;;;5.22;100.00
12759;BME280;20944;47.048;15.390;2023-03-26T06:38:44;97040.16;;;5.21;100.00
12759;BME280;20944;47.048;15.390;2023-03-26T06:41:12;97057.03;;;5.47;100.00
12759;BME280;20944;47.048;15.390;2023-03-26T06:43:40;97063.88;;;5.52;100.00
12759;BME280;20944;47.048;15.390;2023-03-26T06:46:09;97067.97;;;5.65;100.00
12759;BME280;20944;47.048;15.390;2023-03-26T06:48:37;97016.25;;;5.53;100.00
12759;BME280;20944;47.048;15.390;2023-03-26T06:51:06;97012.56;;;5.66;100.00
12759;BME280;20944;47.048;15.390;2023-03-26T06:53:36;97064.78;;;6.01;100.00
12759;BME280;20944;47.048;15.390;2023-03-26T06:56:05;97092.00;;;5.80;100.00
12759;BME280;20944;47.048;15.390;2023-03-26T06:58:34;97083.72;;;5.58;100.00
12759;BME280;20944;47.048;15.390;2023-03-26T07:01:03;97077.63;;;5.60;100.00
12759;BME280;20944;47.048;15.390;2023-03-26T07:03:31;97071.47;;;5.64;100.00
12759;BME280;20944;47.048;15.390;2023-03-26T07:05:59;97070.38;;;5.78;100.00
12759;BME280;20944;47.048;15.390;2023-03-26T07:08:28;97066.72;;;5.91;100.00
12759;BME280;20944;47.048;15.390;2023-03-26T07:10:58;97053.34;;;6.11;100.00
12759;BME280;20944;47.048;15.390;2023-03-26T07:13:26;97050.97;;;5.99;100.00
12759;BME280;20944;47.048;15.390;2023-03-26T07:15:54;97040.34;;;6.11;100.00
12759;BME280;20944;47.048;15.390;2023-03-26T07:18:22;97027.97;;;6.20;100.00
12759;BME280;20944;47.048;15.390;2023-03-26T07:20:51;96994.34;;;6.13;100.00
12759;BME280;20944;47.048;15.390;2023-03-26T07:23:21;97021.28;;;6.51;100.00
12759;BME280;20944;47.048;15.390;2023-03-26T07:25:49;97023.59;;;6.64;100.00
12759;BME280;20944;47.048;15.390;2023-03-26T07:28:24;97028.28;;;6.87;100.00
12759;BME280;20944;47.048;15.390;2023-03-26T07:31:06;97025.31;;;7.02;100.00
12759;BME280;20944;47.048;15.390;2023-03-26T07:33:43;97031.13;;;7.14;100.00
12759;BME280;20944;47.048;15.390;2023-03-26T07:36:20;96971.94;;;6.83;100.00
12759;BME280;20944;47.048;15.390;2023-03-26T07:39:07;97017.91;;;7.23;100.00
12759;BME280;20944;47.048;15.390;2023-03-26T07:41:42;97020.84;;;7.43;100.00
12759;BME280;20944;47.048;15.390;2023-03-26T07:44:41;97018.59;;;7.64;100.00
12759;BME280;20944;47.048;15.390;2023-03-26T07:47:20;96998.63;;;7.63;100.00
12759;BME280;20944;47.048;15.390;2023-03-26T07:49:53;97010.06;;;7.90;100.00
12759;BME280;20944;47.048;15.390;2023-03-26T07:52:22;96980.63;;;7.86;100.00
12759;BME280;20944;47.048;15.390;2023-03-26T07:54:52;96999.28;;;8.02;100.00
12759;BME280;20944;47.048;15.390;2023-03-26T07:57:28;96855.59;;;7.19;100.00
12759;BME280;20944;47.048;15.390;2023-03-26T08:00:03;96985.28;;;8.04;100.00
12759;BME280;20944;47.048;15.390;2023-03-26T08:03:02;96958.69;;;7.92;100.00
12759;BME280;20944;47.048;15.390;2023-03-26T08:05:42;96976.63;;;8.04;100.00
12759;BME280;20944;47.048;15.390;2023-03-26T08:08:18;96971.34;;;8.07;100.00
12759;BME280;20944;47.048;15.390;2023-03-26T08:11:04;96949.84;;;7.99;100.00
12759;BME280;20944;47.048;15.390;2023-03-26T08:13:39;96920.72;;;7.83;100.00
12759;BME280;20944;47.048;15.390;2023-03-26T08:16:17;96892.66;;;7.60;100.00
12759;BME280;20944;47.048;15.390;2023-03-26T08:18:50;96965.66;;;8.22;100.00
12759;BME280;20944;47.048;15.390;2023-03-26T08:21:23;96964.44;;;8.35;100.00
12759;BME280;20944;47.048;15.390;2023-03-26T08:23:59;96931.13;;;8.14;100.00
12759;BME280;20944;47.048;15.390;2023-03-26T08:26:34;96943.03;;;8.23;100.00
12759;BME280;20944;47.048;15.390;2023-03-26T08:29:12;96838.69;;;7.64;100.00
12759;BME280;20944;47.048;15.390;2023-03-26T08:31:49;96948.88;;;8.31;100.00
12759;BME280;20944;47.048;15.390;2023-03-26T08:34:17;96966.97;;;8.38;100.00
12759;BME280;20944;47.048;15.390;2023-03-26T08:36:45;96881.41;;;7.89;100.00
12759;BME280;20944;47.048;15.390;2023-03-26T08:39:13;96965.75;;;8.50;100.00
12759;BME280;20944;47.048;15.390;2023-03-26T08:42:06;96956.88;;;8.54;100.00
12759;BME280;20944;47.048;15.390;2023-03-26T08:45:19;96962.88;;;8.58;100.00
12759;BME280;20944;47.048;15.390;2023-03-26T08:57:23;96937.72;;;8.83;100.00
12759;BME280;20944;47.048;15.390;2023-03-26T09:00:14;96927.63;;;8.99;100.00
12759;BME280;20944;47.048;15.390;2023-03-26T09:03:23;96925.19;;;9.19;100.00
12759;BME280;20944;47.048;15.390;2023-03-26T09:06:27;96915.81;;;9.39;100.00
12759;BME280;20944;47.048;15.390;2023-03-26T09:09:36;96904.31;;;9.44;100.00
12759;BME280;20944;47.048;15.390;2023-03-26T09:12:39;96904.44;;;9.40;100.00
12759;BME280;20944;47.048;15.390;2023-03-26T09:15:34;96815.59;;;8.90;100.00
12759;BME280;20944;47.048;15.390;2023-03-26T09:18:36;96876.66;;;9.62;100.00
12759;BME280;20944;47.048;15.390;2023-03-26T09:21:30;96896.31;;;9.96;100.00
12759;BME280;20944;47.048;15.390;2023-03-26T09:24:23;96853.59;;;9.95;100.00
12759;BME280;20944;47.048;15.390;2023-03-26T09:27:05;96884.56;;;10.31;100.00
12759;BME280;20944;47.048;15.390;2023-03-26T09:30:17;96882.41;;;10.41;100.00
12759;BME280;20944;47.048;15.390;2023-03-26T09:33:14;96866.66;;;10.64;100.00
12759;BME280;20944;47.048;15.390;2023-03-26T09:35:54;96831.69;;;10.65;100.00
12759;BME280;20944;47.048;15.390;2023-03-26T09:38:52;96851.91;;;11.04;100.00
12759;BME280;20944;47.048;15.390;2023-03-26T09:41:35;96854.00;;;11.16;100.00
12759;BME280;20944;47.048;15.390;2023-03-26T09:47:47;96822.81;;;11.49;100.00
12759;BME280;20944;47.048;15.390;2023-03-26T09:50:29;96814.56;;;11.58;100.00
12759;BME280;20944;47.048;15.390;2023-03-26T09:53:30;96818.59;;;11.66;100.00
12759;BME280;20944;47.048;15.390;2023-03-26T09:56:12;96814.78;;;11.73;100.00
12759;BME280;20944;47.048;15.390;2023-03-26T10:01:55;96816.75;;;11.88;100.00
12759;BME280;20944;47.048;15.390;2023-03-26T10:04:51;96807.94;;;11.89;100.00
12759;BME280;20944;47.048;15.390;2023-03-26T10:07:40;96678.59;;;11.10;100.00
12759;BME280;20944;47.048;15.390;2023-03-26T10:10:18;96776.19;;;11.75;100.00
12759;BME280;20944;47.048;15.390;2023-03-26T10:12:56;96780.59;;;11.93;100.00
12759;BME280;20944;47.048;15.390;2023-03-26T10:15:55;96781.09;;;12.20;100.00
12759;BME280;20944;47.048;15.390;2023-03-26T10:18:33;96770.31;;;12.43;100.00
12759;BME280;20944;47.048;15.390;2023-03-26T10:21:11;96772.56;;;12.51;100.00
12759;BME280;20944;47.048;15.390;2023-03-26T10:23:53;96735.59;;;12.37;100.00
12759;BME280;20944;47.048;15.390;2023-03-26T10:30:19;96757.97;;;12.80;72.06
12759;BME280;20944;47.048;15.390;2023-03-26T10:32:57;96742.63;;;12.88;69.51
12759;BME280;20944;47.048;15.390;2023-03-26T10:35:38;96744.63;;;13.01;72.77
12759;BME280;20944;47.048;15.390;2023-03-26T10:38:15;96703.56;;;12.65;69.68
12759;BME280;20944;47.048;15.390;2023-03-26T10:40:53;96664.53;;;12.40;71.73
12759;BME280;20944;47.048;15.390;2023-03-26T10:43:47;96726.09;;;13.04;72.48
12759;BME280;20944;47.048;15.390;2023-03-26T10:46:55;96741.41;;;13.46;72.47
12759;BME280;20944;47.048;15.390;2023-03-26T10:49:40;96738.88;;;13.60;70.07
12759;BME280;20944;47.048;15.390;2023-03-26T10:52:17;96647.75;;;12.93;69.69
12759;BME280;20944;47.048;15.390;2023-03-26T10:54:54;96735.50;;;13.58;68.56
12759;BME280;20944;47.048;15.390;2023-03-26T10:57:34;96706.94;;;13.50;68.60
12759;BME280;20944;47.048;15.390;2023-03-26T11:00:14;96709.94;;;13.60;67.65
12759;BME280;20944;47.048;15.390;2023-03-26T11:03:00;96714.84;;;13.66;70.63
12759;BME280;20944;47.048;15.390;2023-03-26T11:05:44;96708.50;;;13.70;69.85
12759;BME280;20944;47.048;15.390;2023-03-26T11:08:20;96709.44;;;13.85;70.64
12759;BME280;20944;47.048;15.390;2023-03-26T11:11:02;96692.34;;;13.92;70.57
12759;BME280;20944;47.048;15.390;2023-03-26T11:13:40;96692.34;;;14.08;70.77
12759;BME280;20944;47.048;15.390;2023-03-26T11:16:15;96685.44;;;14.21;71.02
12759;BME280;20944;47.048;15.390;2023-03-26T11:18:52;96626.06;;;14.00;70.72
12759;BME280;20944;47.048;15.390;2023-03-26T11:21:25;96661.56;;;14.39;70.22
12759;BME280;20944;47.048;15.390;2023-03-26T11:26:52;96665.22;;;14.36;68.36
12759;BME280;20944;47.048;15.390;2023-03-26T11:29:35;96650.31;;;14.21;71.21
12759;BME280;20944;47.048;15.390;2023-03-26T11:32:10;96651.56;;;14.29;68.85
12759;BME280;20944;47.048;15.390;2023-03-26T11:34:42;96645.25;;;14.32;68.88
12759;BME280;20944;47.048;15.390;2023-03-26T11:37:16;96638.50;;;14.42;68.36
12759;BME280;20944;47.048;15.390;2023-03-26T11:39:49;96639.38;;;14.43;70.10
12759;BME280;20944;47.048;15.390;2023-03-26T11:42:22;96580.28;;;14.17;69.17
12759;BME280;20944;47.048;15.390;2023-03-26T11:44:53;96608.16;;;14.51;69.12
12759;BME280;20944;47.048;15.390;2023-03-26T11:47:28;96619.97;;;14.74;69.03
12759;BME280;20944;47.048;15.390;2023-03-26T11:50:00;96623.38;;;14.90;69.54
12759;BME280;20944;47.048;15.390;2023-03-26T11:52:30;96574.94;;;14.91;69.56
12759;BME280;20944;47.048;15.390;2023-03-26T11:54:58;96607.84;;;15.27;66.28
12759;BME280;20944;47.048;15.390;2023-03-26T11:57:29;96597.66;;;15.49;65.86
12759;BME280;20944;47.048;15.390;2023-03-26T12:00:02;96582.50;;;15.80;65.64
12759;BME280;20944;47.048;15.390;2023-03-26T12:02:39;96559.00;;;16.15;67.12
12759;BME280;20944;47.048;15.390;2023-03-26T12:05:17;96558.09;;;16.41;65.69
12759;BME280;20944;47.048;15.390;2023-03-26T12:07:50;96552.81;;;16.54;65.93
12759;BME280;20944;47.048;15.390;2023-03-26T12:10:32;96541.03;;;16.45;65.08
12759;BME280;20944;47.048;15.390;2023-03-26T12:13:21;96544.09;;;16.27;66.20
12759;BME280;20944;47.048;15.390;2023-03-26T12:15:56;96433.69;;;15.39;67.32
12759;BME280;20944;47.048;15.390;2023-03-26T12:18:26;96533.44;;;16.15;66.61
12759;BME280;20944;47.048;15.390;2023-03-26T12:21:04;96524.13;;;16.23;66.66
12759;BME280;20944;47.048;15.390;2023-03-26T12:23:41;96508.03;;;16.00;67.63
12759;BME280;20944;47.048;15.390;2023-03-26T12:26:14;96516.28;;;16.08;66.04
12759;BME280;20944;47.048;15.390;2023-03-26T12:28:46;96511.34;;;16.16;67.54
12759;BME280;20944;47.048;15.390;2023-03-26T12:31:16;96464.16;;;15.72;66.36
12759;BME280;20944;47.048;15.390;2023-03-26T12:34:02;96500.13;;;16.13;66.30
12759;BME280;20944;47.048;15.390;2023-03-26T12:36:33;96495.47;;;16.42;65.11
12759;BME280;20944;47.048;15.390;2023-03-26T12:39:24;96470.00;;;16.15;64.91
12759;BME280;20944;47.048;15.390;2023-03-26T12:42:27;96481.72;;;16.11;62.83
12759;BME280;20944;47.048;15.390;2023-03-26T12:45:19;96479.19;;;15.97;63.45
12759;BME280;20944;47.048;15.390;2023-03-26T12:47:50;96480.34;;;16.06;64.57
12759;BME280;20944;47.048;15.390;2023-03-26T12:50:38;96472.72;;;16.01;63.96
12759;BME280;20944;47.048;15.390;2023-03-26T12:53:28;96474.53;;;16.01;65.41
12759;BME280;20944;47.048;15.390;2023-03-26T12:55:59;96466.72;;;16.12;64.67
12759;BME280;20944;47.048;15.390;2023-03-26T12:58:51;96457.72;;;16.27;64.20
12759;BME280;20944;47.048;15.390;2023-03-26T13:01:35;96430.13;;;15.93;61.96
12759;BME280;20944;47.048;15.390;2023-03-26T13:04:18;96462.16;;;16.14;62.76
12759;BME280;20944;47.048;15.390;2023-03-26T13:06:53;96448.00;;;16.15;62.68
12759;BME280;20944;47.048;15.390;2023-03-26T13:10:03;96452.00;;;16.08;63.08
12759;BME280;20944;47.048;15.390;2023-03-26T13:12:40;96440.16;;;16.13;61.37
12759;BME280;20944;47.048;15.390;2023-03-26T13:15:17;96411.75;;;16.04;62.65
12759;BME280;20944;47.048;15.390;2023-03-26T13:17:59;96439.97;;;16.29;62.30
12759;BME280;20944;47.048;15.390;2023-03-26T13:20:47;96432.44;;;16.49;61.43
12759;BME280;20944;47.048;15.390;2023-03-26T13:23:24;96345.56;;;16.18;61.54
12759;BME280;20944;47.048;15.390;2023-03-26T13:26:00;96421.00;;;16.97;60.95
12759;BME280;20944;47.048;15.390;2023-03-26T13:28:39;96410.00;;;17.15;62.61
12759;BME280;20944;47.048;15.390;2023-03-26T13:31:16;96403.03;;;17.14;60.58
12759;BME280;20944;47.048;15.390;2023-03-26T13:33:52;96392.84;;;16.96;60.41
12759;BME280;20944;47.048;15.390;2023-03-26T13:36:32;96385.25;;;16.55;60.17
12759;BME280;20944;47.048;15.390;2023-03-26T13:39:13;96389.50;;;16.32;62.37
12759;BME280;20944;47.048;15.390;2023-03-26T13:41:56;96355.72;;;16.12;62.70
12759;BME280;20944;47.048;15.390;2023-03-26T13:44:32;96367.31;;;16.35;63.50
12759;BME280;20944;47.048;15.390;2023-03-26T13:47:07;96356.34;;;16.28;62.08
12759;BME280;20944;47.048;15.390;2023-03-26T13:49:41;96358.44;;;16.23;62.85
12759;BME280;20944;47.048;15.390;2023-03-26T13:52:13;96324.22;;;15.96;61.72
12759;BME280;20944;47.048;15.390;2023-03-26T13:54:46;96358.16;;;15.89;62.57